sensor_id;sensor_type;location;lat;lon;timestamp;P1;durP1;ratioP1;P2;durP2;ratioP2
43771;SDS011;59066;54.782;32.024;2023-04-03T00:00:56;3.45;;;2.08;;
43771;SDS011;59066;54.782;32.024;2023-04-03T00:03:24;4.15;;;2.40;;
43771;SDS011;59066;54.782;32.024;2023-04-03T00:05:52;3.05;;;2.50;;
43771;SDS011;59066;54.782;32.024;2023-04-03T00:08:19;2.25;;;2.05;;
43771;SDS011;59066;54.782;32.024;2023-04-03T00:10:47;2.88;;;2.08;;
43771;SDS011;59066;54.782;32.024;2023-04-03T00:13:15;2.05;;;1.70;;
43771;SDS011;59066;54.782;32.024;2023-04-03T00:15:42;3.10;;;2.00;;
43771;SDS011;59066;54.782;32.024;2023-04-03T00:18:10;1.98;;;1.63;;
43771;SDS011;59066;54.782;32.024;2023-04-03T00:20:38;2.85;;;1.83;;
43771;SDS011;59066;54.782;32.024;2023-04-03T00:23:06;2.35;;;1.60;;
43771;SDS011;59066;54.782;32.024;2023-04-03T00:25:34;2.30;;;1.70;;
43771;SDS011;59066;54.782;32.024;2023-04-03T00:28:02;2.30;;;1.90;;
43771;SDS011;59066;54.782;32.024;2023-04-03T00:30:30;2.70;;;2.25;;
43771;SDS011;59066;54.782;32.024;2023-04-03T00:32:58;2.35;;;1.65;;
43771;SDS011;59066;54.782;32.024;2023-04-03T00:35:27;3.03;;;1.85;;
43771;SDS011;59066;54.782;32.024;2023-04-03T00:37:56;2.65;;;2.10;;
43771;SDS011;59066;54.782;32.024;2023-04-03T00:40:25;2.65;;;1.98;;
43771;SDS011;59066;54.782;32.024;2023-04-03T00:42:57;3.88;;;1.63;;
43771;SDS011;59066;54.782;32.024;2023-04-03T00:45:32;1.85;;;1.75;;
43771;SDS011;59066;54.782;32.024;2023-04-03T00:48:03;1.90;;;1.60;;
43771;SDS011;59066;54.782;32.024;2023-04-03T00:50:37;2.67;;;1.67;;
43771;SDS011;59066;54.782;32.024;2023-04-03T00:53:07;1.52;;;1.42;;
43771;SDS011;59066;54.782;32.024;2023-04-03T00:55:39;1.98;;;1.50;;
43771;SDS011;59066;54.782;32.024;2023-04-03T00:58:09;1.67;;;1.58;;
43771;SDS011;59066;54.782;32.024;2023-04-03T01:00:39;1.85;;;1.38;;
43771;SDS011;59066;54.782;32.024;2023-04-03T01:03:09;2.30;;;1.67;;
43771;SDS011;59066;54.782;32.024;2023-04-03T01:05:41;2.85;;;2.00;;
43771;SDS011;59066;54.782;32.024;2023-04-03T01:08:09;2.05;;;1.67;;
43771;SDS011;59066;54.782;32.024;2023-04-03T01:10:37;2.95;;;1.90;;
43771;SDS011;59066;54.782;32.024;2023-04-03T01:15:57;3.53;;;2.00;;
43771;SDS011;59066;54.782;32.024;2023-04-03T01:18:28;2.20;;;1.77;;
43771;SDS011;59066;54.782;32.024;2023-04-03T01:21:41;3.33;;;2.03;;
43771;SDS011;59066;54.782;32.024;2023-04-03T01:26:54;2.33;;;1.88;;
43771;SDS011;59066;54.782;32.024;2023-04-03T01:29:21;1.80;;;1.52;;
43771;SDS011;59066;54.782;32.024;2023-04-03T01:31:50;3.10;;;2.08;;
43771;SDS011;59066;54.782;32.024;2023-04-03T01:34:20;2.30;;;2.00;;
43771;SDS011;59066;54.782;32.024;2023-04-03T01:36:49;2.00;;;1.73;;
43771;SDS011;59066;54.782;32.024;2023-04-03T01:39:18;3.03;;;1.60;;
43771;SDS011;59066;54.782;32.024;2023-04-03T01:41:46;3.03;;;1.73;;
43771;SDS011;59066;54.782;32.024;2023-04-03T01:44:25;2.28;;;1.90;;
43771;SDS011;59066;54.782;32.024;2023-04-03T01:46:52;3.00;;;2.03;;
43771;SDS011;59066;54.782;32.024;2023-04-03T01:49:22;3.03;;;2.08;;
43771;SDS011;59066;54.782;32.024;2023-04-03T01:51:50;2.42;;;2.10;;
43771;SDS011;59066;54.782;32.024;2023-04-03T01:54:17;2.63;;;2.20;;
43771;SDS011;59066;54.782;32.024;2023-04-03T01:56:45;4.32;;;2.40;;
43771;SDS011;59066;54.782;32.024;2023-04-03T01:59:13;2.30;;;1.80;;
43771;SDS011;59066;54.782;32.024;2023-04-03T02:01:43;2.78;;;2.20;;
43771;SDS011;59066;54.782;32.024;2023-04-03T02:04:12;5.03;;;2.35;;
43771;SDS011;59066;54.782;32.024;2023-04-03T02:06:40;2.95;;;2.00;;
43771;SDS011;59066;54.782;32.024;2023-04-03T02:09:07;2.63;;;2.03;;
43771;SDS011;59066;54.782;32.024;2023-04-03T02:11:35;2.55;;;2.28;;
43771;SDS011;59066;54.782;32.024;2023-04-03T02:14:03;2.63;;;2.03;;
43771;SDS011;59066;54.782;32.024;2023-04-03T02:16:31;2.63;;;1.90;;
43771;SDS011;59066;54.782;32.024;2023-04-03T02:18:58;2.38;;;1.90;;
43771;SDS011;59066;54.782;32.024;2023-04-03T02:21:26;2.65;;;2.28;;
43771;SDS011;59066;54.782;32.024;2023-04-03T02:23:54;3.38;;;2.17;;
43771;SDS011;59066;54.782;32.024;2023-04-03T02:26:22;3.00;;;2.63;;
43771;SDS011;59066;54.782;32.024;2023-04-03T02:28:50;3.05;;;2.28;;
43771;SDS011;59066;54.782;32.024;2023-04-03T02:31:17;3.58;;;2.50;;
43771;SDS011;59066;54.782;32.024;2023-04-03T02:33:46;2.72;;;2.00;;
43771;SDS011;59066;54.782;32.024;2023-04-03T02:36:15;2.97;;;1.95;;
43771;SDS011;59066;54.782;32.024;2023-04-03T02:38:47;3.10;;;2.15;;
43771;SDS011;59066;54.782;32.024;2023-04-03T02:41:15;3.20;;;2.10;;
43771;SDS011;59066;54.782;32.024;2023-04-03T02:43:43;3.83;;;2.05;;
43771;SDS011;59066;54.782;32.024;2023-04-03T02:46:10;2.22;;;1.98;;
43771;SDS011;59066;54.782;32.024;2023-04-03T02:48:38;4.32;;;2.22;;
43771;SDS011;59066;54.782;32.024;2023-04-03T02:51:05;2.75;;;2.05;;
43771;SDS011;59066;54.782;32.024;2023-04-03T02:53:33;4.35;;;1.90;;
43771;SDS011;59066;54.782;32.024;2023-04-03T02:56:08;3.08;;;2.22;;
43771;SDS011;59066;54.782;32.024;2023-04-03T02:58:35;3.78;;;2.03;;
43771;SDS011;59066;54.782;32.024;2023-04-03T03:01:04;3.60;;;2.20;;
43771;SDS011;59066;54.782;32.024;2023-04-03T03:03:32;3.50;;;2.10;;
43771;SDS011;59066;54.782;32.024;2023-04-03T03:06:00;3.15;;;2.22;;
43771;SDS011;59066;54.782;32.024;2023-04-03T03:08:29;3.55;;;1.80;;
43771;SDS011;59066;54.782;32.024;2023-04-03T03:10:57;2.40;;;1.85;;
43771;SDS011;59066;54.782;32.024;2023-04-03T03:13:25;2.28;;;1.90;;
43771;SDS011;59066;54.782;32.024;2023-04-03T03:15:53;3.38;;;2.17;;
43771;SDS011;59066;54.782;32.024;2023-04-03T03:18:21;4.25;;;2.55;;
43771;SDS011;59066;54.782;32.024;2023-04-03T03:20:52;3.72;;;2.08;;
43771;SDS011;59066;54.782;32.024;2023-04-03T03:23:21;4.03;;;2.35;;
43771;SDS011;59066;54.782;32.024;2023-04-03T03:25:53;2.92;;;2.22;;
43771;SDS011;59066;54.782;32.024;2023-04-03T03:28:23;4.00;;;2.05;;
43771;SDS011;59066;54.782;32.024;2023-04-03T03:30:51;4.18;;;2.42;;
43771;SDS011;59066;54.782;32.024;2023-04-03T03:33:20;3.47;;;2.10;;
43771;SDS011;59066;54.782;32.024;2023-04-03T03:35:47;3.85;;;2.40;;
43771;SDS011;59066;54.782;32.024;2023-04-03T03:38:15;4.85;;;2.05;;
43771;SDS011;59066;54.782;32.024;2023-04-03T03:40:42;2.55;;;1.90;;
43771;SDS011;59066;54.782;32.024;2023-04-03T03:43:10;2.88;;;1.90;;
43771;SDS011;59066;54.782;32.024;2023-04-03T03:45:38;3.78;;;2.30;;
43771;SDS011;59066;54.782;32.024;2023-04-03T03:48:05;4.15;;;2.20;;
43771;SDS011;59066;54.782;32.024;2023-04-03T03:50:33;3.30;;;2.60;;
43771;SDS011;59066;54.782;32.024;2023-04-03T03:53:01;3.88;;;1.80;;
43771;SDS011;59066;54.782;32.024;2023-04-03T03:55:28;2.97;;;2.08;;
43771;SDS011;59066;54.782;32.024;2023-04-03T03:57:57;2.65;;;1.65;;
43771;SDS011;59066;54.782;32.024;2023-04-03T04:00:27;3.08;;;2.20;;
43771;SDS011;59066;54.782;32.024;2023-04-03T04:02:56;3.25;;;2.05;;
43771;SDS011;59066;54.782;32.024;2023-04-03T04:05:25;3.35;;;2.13;;
43771;SDS011;59066;54.782;32.024;2023-04-03T04:07:53;2.00;;;1.63;;
43771;SDS011;59066;54.782;32.024;2023-04-03T04:10:22;3.20;;;1.70;;
43771;SDS011;59066;54.782;32.024;2023-04-03T04:12:50;2.03;;;1.63;;
43771;SDS011;59066;54.782;32.024;2023-04-03T04:15:22;2.05;;;1.55;;
43771;SDS011;59066;54.782;32.024;2023-04-03T04:17:50;2.28;;;1.80;;
43771;SDS011;59066;54.782;32.024;2023-04-03T04:20:17;2.33;;;1.85;;
43771;SDS011;59066;54.782;32.024;2023-04-03T04:22:46;3.72;;;2.60;;
43771;SDS011;59066;54.782;32.024;2023-04-03T04:25:15;2.80;;;1.80;;
43771;SDS011;59066;54.782;32.024;2023-04-03T04:27:43;2.17;;;1.40;;
43771;SDS011;59066;54.782;32.024;2023-04-03T04:30:13;3.97;;;1.83;;
43771;SDS011;59066;54.782;32.024;2023-04-03T04:32:43;3.50;;;2.17;;
43771;SDS011;59066;54.782;32.024;2023-04-03T04:35:11;2.28;;;1.80;;
43771;SDS011;59066;54.782;32.024;2023-04-03T04:37:42;4.05;;;2.28;;
43771;SDS011;59066;54.782;32.024;2023-04-03T04:40:11;7.53;;;2.50;;
43771;SDS011;59066;54.782;32.024;2023-04-03T04:42:39;2.78;;;1.95;;
43771;SDS011;59066;54.782;32.024;2023-04-03T04:45:07;5.13;;;3.08;;
43771;SDS011;59066;54.782;32.024;2023-04-03T04:47:36;3.85;;;2.58;;
43771;SDS011;59066;54.782;32.024;2023-04-03T04:50:04;3.38;;;1.98;;
43771;SDS011;59066;54.782;32.024;2023-04-03T04:52:32;3.75;;;1.50;;
43771;SDS011;59066;54.782;32.024;2023-04-03T04:55:00;3.58;;;2.22;;
43771;SDS011;59066;54.782;32.024;2023-04-03T04:57:28;3.33;;;2.15;;
43771;SDS011;59066;54.782;32.024;2023-04-03T04:59:57;5.18;;;2.58;;
43771;SDS011;59066;54.782;32.024;2023-04-03T05:02:25;2.45;;;1.67;;
43771;SDS011;59066;54.782;32.024;2023-04-03T05:04:54;5.38;;;3.28;;
43771;SDS011;59066;54.782;32.024;2023-04-03T05:07:26;6.80;;;2.58;;
43771;SDS011;59066;54.782;32.024;2023-04-03T05:09:54;3.92;;;2.75;;
43771;SDS011;59066;54.782;32.024;2023-04-03T05:12:22;4.90;;;2.35;;
43771;SDS011;59066;54.782;32.024;2023-04-03T05:14:55;4.15;;;2.55;;
43771;SDS011;59066;54.782;32.024;2023-04-03T05:17:24;3.63;;;2.08;;
43771;SDS011;59066;54.782;32.024;2023-04-03T05:19:55;4.40;;;2.53;;
43771;SDS011;59066;54.782;32.024;2023-04-03T05:22:23;3.35;;;2.00;;
43771;SDS011;59066;54.782;32.024;2023-04-03T05:24:54;3.55;;;2.10;;
43771;SDS011;59066;54.782;32.024;2023-04-03T05:27:22;3.30;;;1.92;;
43771;SDS011;59066;54.782;32.024;2023-04-03T05:29:54;3.65;;;1.80;;
43771;SDS011;59066;54.782;32.024;2023-04-03T05:32:22;3.67;;;2.10;;
43771;SDS011;59066;54.782;32.024;2023-04-03T05:34:59;5.00;;;2.90;;
43771;SDS011;59066;54.782;32.024;2023-04-03T05:37:27;3.95;;;1.95;;
43771;SDS011;59066;54.782;32.024;2023-04-03T05:39:55;4.13;;;1.88;;
43771;SDS011;59066;54.782;32.024;2023-04-03T05:42:23;3.03;;;1.95;;
43771;SDS011;59066;54.782;32.024;2023-04-03T05:44:51;2.75;;;1.98;;
43771;SDS011;59066;54.782;32.024;2023-04-03T05:47:18;2.75;;;1.80;;
43771;SDS011;59066;54.782;32.024;2023-04-03T05:49:46;2.03;;;1.60;;
43771;SDS011;59066;54.782;32.024;2023-04-03T05:52:23;3.08;;;2.53;;
43771;SDS011;59066;54.782;32.024;2023-04-03T05:54:54;2.80;;;1.95;;
43771;SDS011;59066;54.782;32.024;2023-04-03T05:57:25;2.75;;;1.77;;
43771;SDS011;59066;54.782;32.024;2023-04-03T05:59:53;3.30;;;2.25;;
43771;SDS011;59066;54.782;32.024;2023-04-03T06:02:23;4.25;;;2.47;;
43771;SDS011;59066;54.782;32.024;2023-04-03T06:04:52;2.33;;;1.65;;
43771;SDS011;59066;54.782;32.024;2023-04-03T06:07:20;2.80;;;1.60;;
43771;SDS011;59066;54.782;32.024;2023-04-03T06:09:50;4.45;;;2.40;;
43771;SDS011;59066;54.782;32.024;2023-04-03T06:12:21;2.53;;;2.17;;
43771;SDS011;59066;54.782;32.024;2023-04-03T06:14:49;2.90;;;1.98;;
43771;SDS011;59066;54.782;32.024;2023-04-03T06:17:17;3.28;;;2.00;;
43771;SDS011;59066;54.782;32.024;2023-04-03T06:19:46;2.83;;;1.90;;
43771;SDS011;59066;54.782;32.024;2023-04-03T06:22:14;3.72;;;2.42;;
43771;SDS011;59066;54.782;32.024;2023-04-03T06:24:42;4.35;;;2.58;;
43771;SDS011;59066;54.782;32.024;2023-04-03T06:27:10;2.20;;;1.88;;
43771;SDS011;59066;54.782;32.024;2023-04-03T06:29:38;3.42;;;2.38;;
43771;SDS011;59066;54.782;32.024;2023-04-03T06:32:06;2.17;;;1.70;;
43771;SDS011;59066;54.782;32.024;2023-04-03T06:34:33;5.35;;;2.90;;
43771;SDS011;59066;54.782;32.024;2023-04-03T06:37:02;3.90;;;2.47;;
43771;SDS011;59066;54.782;32.024;2023-04-03T06:39:29;2.42;;;1.77;;
43771;SDS011;59066;54.782;32.024;2023-04-03T06:41:57;2.42;;;1.90;;
43771;SDS011;59066;54.782;32.024;2023-04-03T06:44:36;2.58;;;1.63;;
43771;SDS011;59066;54.782;32.024;2023-04-03T06:47:04;2.60;;;1.60;;
43771;SDS011;59066;54.782;32.024;2023-04-03T06:49:32;3.10;;;2.47;;
43771;SDS011;59066;54.782;32.024;2023-04-03T06:52:00;2.75;;;2.10;;
43771;SDS011;59066;54.782;32.024;2023-04-03T06:54:28;2.40;;;1.58;;
43771;SDS011;59066;54.782;32.024;2023-04-03T06:56:55;4.07;;;2.30;;
43771;SDS011;59066;54.782;32.024;2023-04-03T06:59:23;4.05;;;2.20;;
43771;SDS011;59066;54.782;32.024;2023-04-03T07:01:51;2.55;;;1.90;;
43771;SDS011;59066;54.782;32.024;2023-04-03T07:04:19;2.75;;;2.40;;
43771;SDS011;59066;54.782;32.024;2023-04-03T07:06:49;5.57;;;3.00;;
43771;SDS011;59066;54.782;32.024;2023-04-03T07:09:17;2.42;;;1.70;;
43771;SDS011;59066;54.782;32.024;2023-04-03T07:11:45;4.68;;;3.40;;
43771;SDS011;59066;54.782;32.024;2023-04-03T07:14:13;3.42;;;2.42;;
43771;SDS011;59066;54.782;32.024;2023-04-03T07:16:40;4.00;;;2.35;;
43771;SDS011;59066;54.782;32.024;2023-04-03T07:19:08;3.95;;;2.95;;
43771;SDS011;59066;54.782;32.024;2023-04-03T07:21:36;3.08;;;1.95;;
43771;SDS011;59066;54.782;32.024;2023-04-03T07:24:04;5.97;;;3.08;;
43771;SDS011;59066;54.782;32.024;2023-04-03T07:26:33;3.60;;;2.10;;
43771;SDS011;59066;54.782;32.024;2023-04-03T07:29:01;2.70;;;1.90;;
43771;SDS011;59066;54.782;32.024;2023-04-03T07:31:28;3.60;;;2.30;;
43771;SDS011;59066;54.782;32.024;2023-04-03T07:33:56;4.03;;;2.55;;
43771;SDS011;59066;54.782;32.024;2023-04-03T07:36:23;4.05;;;2.75;;
43771;SDS011;59066;54.782;32.024;2023-04-03T07:38:51;2.47;;;1.73;;
43771;SDS011;59066;54.782;32.024;2023-04-03T07:41:19;2.80;;;2.20;;
43771;SDS011;59066;54.782;32.024;2023-04-03T07:43:49;3.33;;;1.95;;
43771;SDS011;59066;54.782;32.024;2023-04-03T07:46:17;2.20;;;1.63;;
43771;SDS011;59066;54.782;32.024;2023-04-03T07:48:44;3.88;;;2.92;;
43771;SDS011;59066;54.782;32.024;2023-04-03T07:51:12;2.88;;;2.15;;
43771;SDS011;59066;54.782;32.024;2023-04-03T07:53:40;2.42;;;1.98;;
43771;SDS011;59066;54.782;32.024;2023-04-03T07:56:08;2.17;;;1.75;;
43771;SDS011;59066;54.782;32.024;2023-04-03T07:58:36;2.15;;;1.88;;
43771;SDS011;59066;54.782;32.024;2023-04-03T08:01:04;2.22;;;1.58;;
43771;SDS011;59066;54.782;32.024;2023-04-03T08:03:31;3.17;;;1.98;;
43771;SDS011;59066;54.782;32.024;2023-04-03T08:06:06;4.55;;;2.42;;
43771;SDS011;59066;54.782;32.024;2023-04-03T08:08:40;4.45;;;3.03;;
43771;SDS011;59066;54.782;32.024;2023-04-03T08:11:09;3.33;;;1.90;;
43771;SDS011;59066;54.782;32.024;2023-04-03T08:13:37;1.83;;;1.55;;
43771;SDS011;59066;54.782;32.024;2023-04-03T08:16:09;2.83;;;1.85;;
43771;SDS011;59066;54.782;32.024;2023-04-03T08:18:38;2.50;;;1.58;;
43771;SDS011;59066;54.782;32.024;2023-04-03T08:21:07;3.22;;;2.38;;
43771;SDS011;59066;54.782;32.024;2023-04-03T08:23:39;2.97;;;1.92;;
43771;SDS011;59066;54.782;32.024;2023-04-03T08:26:09;3.72;;;2.80;;
43771;SDS011;59066;54.782;32.024;2023-04-03T08:28:38;1.70;;;1.45;;
43771;SDS011;59066;54.782;32.024;2023-04-03T08:31:12;2.05;;;1.70;;
43771;SDS011;59066;54.782;32.024;2023-04-03T08:33:42;3.05;;;1.80;;
43771;SDS011;59066;54.782;32.024;2023-04-03T08:36:44;1.85;;;1.60;;
43771;SDS011;59066;54.782;32.024;2023-04-03T08:39:04;1.70;;;1.60;;
43771;SDS011;59066;54.782;32.024;2023-04-03T08:49:48;2.33;;;1.73;;
43771;SDS011;59066;54.782;32.024;2023-04-03T08:55:28;5.30;;;2.78;;
43771;SDS011;59066;54.782;32.024;2023-04-03T08:58:09;2.33;;;1.85;;
43771;SDS011;59066;54.782;32.024;2023-04-03T09:01:23;2.33;;;1.35;;
43771;SDS011;59066;54.782;32.024;2023-04-03T09:03:55;1.65;;;1.30;;
43771;SDS011;59066;54.782;32.024;2023-04-03T09:06:26;1.85;;;1.65;;
43771;SDS011;59066;54.782;32.024;2023-04-03T09:09:14;2.60;;;2.40;;
43771;SDS011;59066;54.782;32.024;2023-04-03T09:12:03;2.90;;;2.40;;
43771;SDS011;59066;54.782;32.024;2023-04-03T09:14:49;4.70;;;3.92;;
43771;SDS011;59066;54.782;32.024;2023-04-03T09:22:51;5.63;;;5.13;;
43771;SDS011;59066;54.782;32.024;2023-04-03T09:25:28;5.63;;;3.67;;
43771;SDS011;59066;54.782;32.024;2023-04-03T09:28:00;6.38;;;5.00;;
43771;SDS011;59066;54.782;32.024;2023-04-03T09:30:28;4.32;;;2.53;;
43771;SDS011;59066;54.782;32.024;2023-04-03T09:32:56;4.03;;;3.00;;
43771;SDS011;59066;54.782;32.024;2023-04-03T09:35:29;2.88;;;1.80;;
43771;SDS011;59066;54.782;32.024;2023-04-03T09:40:41;3.58;;;2.63;;
43771;SDS011;59066;54.782;32.024;2023-04-03T09:43:30;4.28;;;3.00;;
43771;SDS011;59066;54.782;32.024;2023-04-03T09:46:16;2.15;;;1.95;;
43771;SDS011;59066;54.782;32.024;2023-04-03T09:48:51;5.53;;;2.78;;
43771;SDS011;59066;54.782;32.024;2023-04-03T09:51:33;3.70;;;2.42;;
43771;SDS011;59066;54.782;32.024;2023-04-03T09:54:00;5.03;;;2.90;;
43771;SDS011;59066;54.782;32.024;2023-04-03T09:56:53;3.53;;;2.35;;
43771;SDS011;59066;54.782;32.024;2023-04-03T09:59:22;3.35;;;2.13;;
43771;SDS011;59066;54.782;32.024;2023-04-03T10:02:00;2.70;;;2.10;;
43771;SDS011;59066;54.782;32.024;2023-04-03T10:04:48;3.22;;;1.98;;
43771;SDS011;59066;54.782;32.024;2023-04-03T10:07:33;2.65;;;1.63;;
43771;SDS011;59066;54.782;32.024;2023-04-03T10:12:44;2.67;;;2.08;;
43771;SDS011;59066;54.782;32.024;2023-04-03T10:15:13;2.80;;;1.90;;
43771;SDS011;59066;54.782;32.024;2023-04-03T10:17:49;2.72;;;1.73;;
43771;SDS011;59066;54.782;32.024;2023-04-03T10:36:47;4.25;;;2.20;;
43771;SDS011;59066;54.782;32.024;2023-04-03T10:39:36;2.75;;;1.65;;
43771;SDS011;59066;54.782;32.024;2023-04-03T10:42:31;3.33;;;2.05;;
43771;SDS011;59066;54.782;32.024;2023-04-03T10:45:18;3.35;;;2.28;;
43771;SDS011;59066;54.782;32.024;2023-04-03T10:56:09;1.88;;;1.50;;
43771;SDS011;59066;54.782;32.024;2023-04-03T11:01:51;3.00;;;2.20;;
43771;SDS011;59066;54.782;32.024;2023-04-03T11:04:24;2.30;;;1.80;;
43771;SDS011;59066;54.782;32.024;2023-04-03T11:07:00;4.82;;;1.90;;
43771;SDS011;59066;54.782;32.024;2023-04-03T11:09:32;3.22;;;1.58;;
43771;SDS011;59066;54.782;32.024;2023-04-03T11:12:06;3.70;;;1.90;;
43771;SDS011;59066;54.782;32.024;2023-04-03T11:14:37;1.60;;;1.50;;
43771;SDS011;59066;54.782;32.024;2023-04-03T11:22:34;2.45;;;1.80;;
43771;SDS011;59066;54.782;32.024;2023-04-03T11:35:32;5.25;;;3.45;;
43771;SDS011;59066;54.782;32.024;2023-04-03T11:38:01;2.92;;;2.10;;
43771;SDS011;59066;54.782;32.024;2023-04-03T11:40:34;3.53;;;2.05;;
43771;SDS011;59066;54.782;32.024;2023-04-03T11:45:53;4.75;;;2.13;;
43771;SDS011;59066;54.782;32.024;2023-04-03T11:53:30;2.58;;;1.60;;
43771;SDS011;59066;54.782;32.024;2023-04-03T11:56:00;6.15;;;3.40;;
43771;SDS011;59066;54.782;32.024;2023-04-03T11:58:35;3.15;;;2.10;;
43771;SDS011;59066;54.782;32.024;2023-04-03T12:01:08;7.40;;;4.45;;
43771;SDS011;59066;54.782;32.024;2023-04-03T12:08:59;2.88;;;1.80;;
43771;SDS011;59066;54.782;32.024;2023-04-03T12:11:30;2.58;;;1.65;;
43771;SDS011;59066;54.782;32.024;2023-04-03T12:54:15;7.00;;;2.63;;
43771;SDS011;59066;54.782;32.024;2023-04-03T12:56:46;6.60;;;3.38;;
43771;SDS011;59066;54.782;32.024;2023-04-03T12:59:19;5.50;;;3.38;;
43771;SDS011;59066;54.782;32.024;2023-04-03T13:01:55;8.45;;;4.68;;
43771;SDS011;59066;54.782;32.024;2023-04-03T13:04:24;8.43;;;5.32;;
43771;SDS011;59066;54.782;32.024;2023-04-03T13:06:54;9.52;;;4.63;;
43771;SDS011;59066;54.782;32.024;2023-04-03T13:09:23;8.77;;;4.68;;
43771;SDS011;59066;54.782;32.024;2023-04-03T13:11:56;6.05;;;3.92;;
43771;SDS011;59066;54.782;32.024;2023-04-03T13:14:38;8.55;;;3.83;;
43771;SDS011;59066;54.782;32.024;2023-04-03T13:17:10;6.80;;;3.92;;
43771;SDS011;59066;54.782;32.024;2023-04-03T13:19:42;12.90;;;6.13;;
43771;SDS011;59066;54.782;32.024;2023-04-03T13:24:53;5.32;;;2.80;;
43771;SDS011;59066;54.782;32.024;2023-04-03T13:27:23;4.60;;;2.35;;
43771;SDS011;59066;54.782;32.024;2023-04-03T13:29:52;4.20;;;2.65;;
43771;SDS011;59066;54.782;32.024;2023-04-03T13:32:22;4.65;;;2.80;;
43771;SDS011;59066;54.782;32.024;2023-04-03T13:34:51;5.82;;;3.28;;
43771;SDS011;59066;54.782;32.024;2023-04-03T13:37:29;6.80;;;3.22;;
43771;SDS011;59066;54.782;32.024;2023-04-03T13:40:09;6.00;;;3.42;;
43771;SDS011;59066;54.782;32.024;2023-04-03T13:42:39;4.50;;;2.85;;
43771;SDS011;59066;54.782;32.024;2023-04-03T13:47:39;4.25;;;2.58;;
43771;SDS011;59066;54.782;32.024;2023-04-03T13:52:41;7.97;;;4.60;;
43771;SDS011;59066;54.782;32.024;2023-04-03T13:55:19;8.05;;;4.75;;
43771;SDS011;59066;54.782;32.024;2023-04-03T14:03:43;6.20;;;3.80;;
43771;SDS011;59066;54.782;32.024;2023-04-03T14:06:14;7.20;;;3.70;;
43771;SDS011;59066;54.782;32.024;2023-04-03T14:08:44;8.18;;;4.88;;
43771;SDS011;59066;54.782;32.024;2023-04-03T14:11:16;6.68;;;4.00;;
43771;SDS011;59066;54.782;32.024;2023-04-03T14:13:47;7.07;;;3.88;;
43771;SDS011;59066;54.782;32.024;2023-04-03T14:16:20;7.63;;;4.50;;
43771;SDS011;59066;54.782;32.024;2023-04-03T14:18:50;8.20;;;5.28;;
43771;SDS011;59066;54.782;32.024;2023-04-03T14:21:19;7.65;;;4.80;;
43771;SDS011;59066;54.782;32.024;2023-04-03T14:23:48;7.20;;;4.60;;
43771;SDS011;59066;54.782;32.024;2023-04-03T14:26:17;7.43;;;4.20;;
43771;SDS011;59066;54.782;32.024;2023-04-03T14:28:48;6.53;;;3.78;;
43771;SDS011;59066;54.782;32.024;2023-04-03T14:31:19;5.88;;;3.28;;
43771;SDS011;59066;54.782;32.024;2023-04-03T14:33:48;7.18;;;4.35;;
43771;SDS011;59066;54.782;32.024;2023-04-03T14:36:25;5.35;;;3.38;;
43771;SDS011;59066;54.782;32.024;2023-04-03T14:38:55;6.97;;;3.60;;
43771;SDS011;59066;54.782;32.024;2023-04-03T14:41:25;5.95;;;4.05;;
43771;SDS011;59066;54.782;32.024;2023-04-03T14:43:53;5.45;;;3.30;;
43771;SDS011;59066;54.782;32.024;2023-04-03T14:46:28;6.93;;;4.03;;
43771;SDS011;59066;54.782;32.024;2023-04-03T14:49:15;5.32;;;3.60;;
43771;SDS011;59066;54.782;32.024;2023-04-03T14:51:45;5.57;;;3.72;;
43771;SDS011;59066;54.782;32.024;2023-04-03T14:54:14;4.65;;;2.90;;
43771;SDS011;59066;54.782;32.024;2023-04-03T14:56:45;4.68;;;3.10;;
43771;SDS011;59066;54.782;32.024;2023-04-03T14:59:14;6.28;;;3.08;;
43771;SDS011;59066;54.782;32.024;2023-04-03T15:01:42;5.35;;;2.58;;
43771;SDS011;59066;54.782;32.024;2023-04-03T15:04:13;5.57;;;3.30;;
43771;SDS011;59066;54.782;32.024;2023-04-03T15:06:46;6.85;;;3.92;;
43771;SDS011;59066;54.782;32.024;2023-04-03T15:09:22;4.78;;;2.90;;
43771;SDS011;59066;54.782;32.024;2023-04-03T15:14:20;5.35;;;2.55;;
43771;SDS011;59066;54.782;32.024;2023-04-03T15:16:55;9.77;;;6.35;;
43771;SDS011;59066;54.782;32.024;2023-04-03T15:19:22;5.97;;;3.30;;
43771;SDS011;59066;54.782;32.024;2023-04-03T15:21:50;4.50;;;3.10;;
43771;SDS011;59066;54.782;32.024;2023-04-03T15:24:18;4.45;;;3.17;;
43771;SDS011;59066;54.782;32.024;2023-04-03T15:26:45;3.95;;;2.50;;
43771;SDS011;59066;54.782;32.024;2023-04-03T15:29:13;6.55;;;3.45;;
43771;SDS011;59066;54.782;32.024;2023-04-03T15:31:41;4.82;;;2.90;;
43771;SDS011;59066;54.782;32.024;2023-04-03T15:34:09;4.13;;;2.60;;
43771;SDS011;59066;54.782;32.024;2023-04-03T15:36:36;5.28;;;3.35;;
43771;SDS011;59066;54.782;32.024;2023-04-03T15:39:04;5.75;;;3.78;;
43771;SDS011;59066;54.782;32.024;2023-04-03T15:41:31;4.05;;;2.65;;
43771;SDS011;59066;54.782;32.024;2023-04-03T15:43:59;4.85;;;3.03;;
43771;SDS011;59066;54.782;32.024;2023-04-03T15:46:26;6.22;;;3.33;;
43771;SDS011;59066;54.782;32.024;2023-04-03T15:48:54;5.75;;;3.42;;
43771;SDS011;59066;54.782;32.024;2023-04-03T15:51:22;5.20;;;3.03;;
43771;SDS011;59066;54.782;32.024;2023-04-03T15:54:37;3.33;;;2.50;;
43771;SDS011;59066;54.782;32.024;2023-04-03T15:56:48;5.10;;;2.70;;
43771;SDS011;59066;54.782;32.024;2023-04-03T15:59:16;6.35;;;5.13;;
43771;SDS011;59066;54.782;32.024;2023-04-03T16:01:44;3.97;;;2.00;;
43771;SDS011;59066;54.782;32.024;2023-04-03T16:04:17;10.07;;;5.00;;
43771;SDS011;59066;54.782;32.024;2023-04-03T16:06:47;2.85;;;1.77;;
43771;SDS011;59066;54.782;32.024;2023-04-03T16:09:16;6.30;;;3.53;;
43771;SDS011;59066;54.782;32.024;2023-04-03T16:11:44;6.03;;;3.20;;
43771;SDS011;59066;54.782;32.024;2023-04-03T16:14:11;3.13;;;2.00;;
43771;SDS011;59066;54.782;32.024;2023-04-03T16:16:39;2.45;;;1.75;;
43771;SDS011;59066;54.782;32.024;2023-04-03T16:19:07;1.40;;;1.30;;
43771;SDS011;59066;54.782;32.024;2023-04-03T16:21:35;2.22;;;1.50;;
43771;SDS011;59066;54.782;32.024;2023-04-03T16:24:04;1.40;;;1.30;;
43771;SDS011;59066;54.782;32.024;2023-04-03T16:26:32;2.25;;;1.90;;
43771;SDS011;59066;54.782;32.024;2023-04-03T16:28:59;2.53;;;1.65;;
43771;SDS011;59066;54.782;32.024;2023-04-03T16:31:27;2.63;;;1.75;;
43771;SDS011;59066;54.782;32.024;2023-04-03T16:33:55;1.70;;;1.50;;
43771;SDS011;59066;54.782;32.024;2023-04-03T16:36:24;1.88;;;1.70;;
43771;SDS011;59066;54.782;32.024;2023-04-03T16:38:52;3.13;;;2.30;;
43771;SDS011;59066;54.782;32.024;2023-04-03T16:41:20;3.78;;;2.22;;
43771;SDS011;59066;54.782;32.024;2023-04-03T16:43:47;1.75;;;1.40;;
43771;SDS011;59066;54.782;32.024;2023-04-03T16:46:16;2.05;;;1.60;;
43771;SDS011;59066;54.782;32.024;2023-04-03T16:48:45;2.20;;;1.70;;
43771;SDS011;59066;54.782;32.024;2023-04-03T16:51:13;3.40;;;2.30;;
43771;SDS011;59066;54.782;32.024;2023-04-03T16:53:41;2.38;;;1.70;;
43771;SDS011;59066;54.782;32.024;2023-04-03T16:56:09;1.65;;;1.40;;
43771;SDS011;59066;54.782;32.024;2023-04-03T16:58:37;1.67;;;1.58;;
43771;SDS011;59066;54.782;32.024;2023-04-03T17:01:15;2.33;;;1.75;;
43771;SDS011;59066;54.782;32.024;2023-04-03T17:03:44;1.95;;;1.50;;
43771;SDS011;59066;54.782;32.024;2023-04-03T17:06:15;3.63;;;1.70;;
43771;SDS011;59066;54.782;32.024;2023-04-03T17:08:45;2.95;;;1.60;;
43771;SDS011;59066;54.782;32.024;2023-04-03T17:11:27;3.50;;;2.00;;
43771;SDS011;59066;54.782;32.024;2023-04-03T17:13:56;2.83;;;1.50;;